• Join FlightAware (Why Join?)
  • Login
  • US Flag 
08:04PM EDT


 

Airport Tracker/Info


-or-


 

Live Flight TrackerFlight Track Log ✈ WIG1043 ✈ 10-Apr-2014 ✈ KBGR - KMHT

Flight Track Log - Related Links

Times and Time Zones

All times are in EDT time to prevent confusion due to time zone crossing. See the WIG1043 flight status page for this flight to view local times or setup timezone preferences in your user account.

Time Position Orientation Groundspeed Altitude Reporting Facility
EDT Latitude Longitude Course Direction KTS MPH feet Rate Location/Type
07:45PM 44.7439 -68.7686 226° Southwest 129 148 4,200  Level Boston Center
07:46PM 44.7172 -68.7972 217° Southwest 121 139 5,900 900 Climbing Boston Center
07:47PM 44.6844 -68.8350 219° Southwest 141 162 6,100 60 Climbing Boston Center
07:49PM 44.6196 -69.0866 226° Southwest  Level FlightAware Approximate
07:49PM 44.6236 -68.9336 229° Southwest 167 192 6,100  Level Boston Center
07:50PM 44.5890 -69.1311 226° Southwest  Level FlightAware Approximate
07:50PM 44.5936 -68.9833 230° Southwest 166 191 6,000  Level Boston Center
07:51PM 44.5669 -69.0367 235° Southwest 166 191 6,000  Level Boston Center
07:52PM 44.5361 -69.0858 229° Southwest 166 191 6,000  Level Boston Center
07:53PM 44.5042 -69.1336 227° Southwest 166 191 6,000  Level Boston Center
07:54PM 44.4725 -69.1819 227° Southwest 166 191 6,000  Level Boston Center
07:55PM 44.4411 -69.2297 227° Southwest 166 191 6,000 -60 Level Boston Center
07:57PM 44.3783 -69.3264 228° Southwest 166 191 5,900 -60 Descending Boston Center
07:58PM 44.3467 -69.3747 228° Southwest 166 191 5,900  Level Boston Center
07:59PM 44.3075 -69.4342 227° Southwest 167 192 5,900  Level Boston Center
08:00PM 44.2758 -69.4836 228° Southwest 168 193 5,900  Level Boston Center
08:01PM 44.2442 -69.5317 227° Southwest 168 193 5,900  Level Boston Center
08:02PM 44.2097 -69.5778 224° Southwest 169 194 5,900  Level Boston Center
08:03PM 44.1753 -69.6242 224° Southwest 169 194 5,900  Level Boston Center
08:04PM 44.1400 -69.6714 224° Southwest 172 198 5,900  Level Boston Center
08:05PM 44.1042 -69.7250 227° Southwest 175 201 5,900  Level Boston Center
08:06PM 44.0731 -69.7775 230° Southwest 176 203 5,900  Level Boston Center
08:07PM 44.0414 -69.8311 231° Southwest 177 204 5,900  Level Boston Center
08:08PM 44.0092 -69.8825 229° Southwest 177 204 5,900  Level Boston Center
08:09PM 43.9722 -69.9361 226° Southwest 178 205 5,900  Level Boston Center
08:10PM 43.9381 -69.9864 227° Southwest 178 205 5,900  Level Boston Center
08:11PM 43.9028 -70.0350 225° Southwest 178 205 5,900  Level Boston Center
08:12PM 43.8667 -70.0825 225° Southwest 178 205 5,900  Level Boston Center
08:13PM 43.8589 -70.0999 225° Southwest  Level Estimated
08:14PM 43.7933 -70.1831 225° Southwest 178 205 5,900  Level Boston Center
08:15PM 43.7617 -70.2361 230° Southwest 178 205 5,900  Level Boston Center
08:18PM 43.6642 -70.4036 227° Southwest 177 204 5,900  Level Boston Center
08:19PM 43.6322 -70.4564 230° Southwest 178 205 5,900  Level Boston Center
08:20PM 43.5997 -70.5072 229° Southwest 178 205 5,900  Level Boston Center
08:22PM 43.5289 -70.6106 227° Southwest 179 206 5,900  Level Boston Center
08:24PM 43.5032 -70.6232 227° Southwest  Level FlightAware Approximate
08:24PM 43.4667 -70.6833 220° Southwest 177 204 6,000  Level KA90
08:25PM 43.4333 -70.7333 227° Southwest 176 203 6,000  Level KA90
08:26PM 43.4167 -70.7833 245° Southwest 173 199 6,000  Level KA90
08:27PM 43.3667 -70.8333 216° Southwest 173 199 6,000 -120 Level KA90
08:28PM 43.3547 -70.8533 231° Southwest 174 200 5,900 -120 Descending Boston Center
08:29PM 43.3244 -70.9036 230° Southwest 174 200 5,900  Level Boston Center
08:30PM 43.2928 -70.9494 227° Southwest 169 194 5,900  Level Boston Center
08:31PM 43.2575 -70.9917 221° Southwest 169 194 5,900 -300 Level Boston Center
08:32PM 43.2222 -71.0433 227° Southwest 170 196 5,400 -660 Descending Boston Center
08:33PM 43.1867 -71.0914 225° Southwest 178 205 4,600 -720 Descending Boston Center
08:34PM 43.1561 -71.1431 231° Southwest 177 204 4,000 -300 Descending Boston Center
08:35PM 43.1294 -71.1961 235° Southwest 158 182 4,000 -300 Level Boston Center
08:36PM 43.0986 -71.2339 222° Southwest 153 176 3,400 -540 Descending Boston Center
08:37PM 43.0731 -71.2697 226° Southwest 137 158 3,000 -360 Descending Boston Center
08:38PM 43.0467 -71.3028 222° Southwest 132 152 2,700 -420 Descending Boston Center
08:39PM 43.0214 -71.3342 222° Southwest 116 133 2,200 -540 Descending Boston Center
08:40PM 42.9997 -71.3614 223° Southwest 111 128 1,700 -540 Descending Boston Center
08:41PM 42.9772 -71.3886 222° Southwest 111 128 1,200 -600 Descending Boston Center
08:42PM 42.9531 -71.4192 223° Southwest 111 128 500 -420 Descending Boston Center
08:43PM 42.9358 -71.4397 221° Southwest 108 124 400 -120 Descending Boston Center
08:45PM 42.9328 -71.4358 222° Southwest  Level Estimated
08:52PM 42.9328 -71.4358 222° Southwest  Level Estimated
08:53PM 42.9328 -71.4358 174° South  Level Estimated
08:54PM 42.9328 -71.4358 222° Southwest  Level Estimated
08:55PM 42.9328 -71.4358 174° South  Level Estimated
08:56PM 42.9328 -71.4358 222° Southwest  Level Estimated